Time;durP1;ratioP1;P1;durP2;ratioP2;P2;SDS_P1;SDS_P2;PMS_P1;PMS_P2;Temp;Humidity;BMP_temperature;BMP_pressure;BME280_temperature;BME280_humidity;BME280_pressure;Samples;Min_cycle;Max_cycle;Signal;HPM_P1;HPM_P2
2021/08/27 00:01:31;;;;;;;7.03;2.80;;;21.50;95.00;;;;;;5090883;28;20080;-74
2021/08/27 00:03:56;;;;;;;3.33;2.60;;;21.40;95.10;;;;;;5090608;28;20024;-74
2021/08/27 00:06:22;;;;;;;4.38;2.80;;;21.50;95.20;;;;;;5091223;28;20024;-74
2021/08/27 00:08:48;;;;;;;3.55;3.22;;;21.50;95.10;;;;;;5089783;28;20044;-74
2021/08/27 00:11:14;;;;;;;3.47;2.67;;;21.40;95.20;;;;;;5092863;28;20028;-74
2021/08/27 00:13:44;;;;;;;4.35;2.45;;;21.40;95.40;;;;;;5091961;28;20541;-74
2021/08/27 00:16:10;;;;;;;2.78;2.58;;;21.40;95.40;;;;;;5093065;28;20427;-74
2021/08/27 00:18:36;;;;;;;3.55;3.30;;;21.30;95.50;;;;;;5089962;28;20386;-74
2021/08/27 00:21:02;;;;;;;4.93;2.60;;;21.30;95.60;;;;;;5091243;28;20028;-74
2021/08/27 00:23:28;;;;;;;3.05;2.85;;;21.30;95.70;;;;;;5089578;28;20077;-74
2021/08/27 00:25:53;;;;;;;7.78;2.85;;;21.30;95.70;;;;;;5090854;28;20590;-74
2021/08/27 00:28:19;;;;;;;6.38;3.17;;;21.30;95.80;;;;;;5089390;28;20027;-74
2021/08/27 00:30:45;;;;;;;3.95;2.97;;;21.30;95.80;;;;;;5090718;28;20030;-75
2021/08/27 00:33:14;;;;;;;8.13;3.05;;;21.30;96.00;;;;;;5088322;28;20531;-74
2021/08/27 00:35:40;;;;;;;4.22;2.92;;;21.30;95.90;;;;;;5090584;28;20146;-74
2021/08/27 00:38:06;;;;;;;3.90;2.72;;;21.30;95.90;;;;;;5090101;28;20111;-74
2021/08/27 00:40:32;;;;;;;3.20;2.90;;;21.30;96.00;;;;;;5088125;28;20410;-74
2021/08/27 00:42:58;;;;;;;3.20;3.00;;;21.20;96.10;;;;;;5089497;28;20020;-74
2021/08/27 00:45:24;;;;;;;4.03;2.35;;;21.30;96.10;;;;;;5090823;28;20455;-74
2021/08/27 00:47:51;;;;;;;3.35;2.70;;;21.20;96.20;;;;;;5088158;28;20463;-74
2021/08/27 00:50:17;;;;;;;3.13;2.83;;;21.30;96.20;;;;;;5091071;28;20051;-74
2021/08/27 00:52:42;;;;;;;6.75;2.92;;;21.30;96.10;;;;;;5086379;28;20028;-74
2021/08/27 00:55:08;;;;;;;8.10;3.03;;;21.30;96.10;;;;;;5090574;28;20035;-74
2021/08/27 00:57:35;;;;;;;3.42;3.13;;;21.30;96.10;;;;;;5087789;28;20024;-74
2021/08/27 01:00:02;;;;;;;5.13;3.65;;;21.30;96.10;;;;;;5090856;28;20028;-74
2021/08/27 01:02:27;;;;;;;4.38;2.92;;;21.30;96.30;;;;;;5088930;28;20080;-74
2021/08/27 01:04:55;;;;;;;9.55;3.33;;;21.30;96.30;;;;;;5089084;28;20036;-74
2021/08/27 01:07:23;;;;;;;6.22;3.30;;;21.30;96.30;;;;;;5093441;28;20039;-74
2021/08/27 01:10:01;;;;;;;7.38;3.35;;;21.30;96.40;;;;;;5093845;28;20048;-74
2021/08/27 01:12:43;;;;;;;4.65;3.03;;;21.30;96.20;;;;;;5093574;28;20460;-74
2021/08/27 01:15:20;;;;;;;9.15;3.28;;;21.30;96.40;;;;;;5093682;28;20047;-74
2021/08/27 01:17:54;;;;;;;3.92;3.20;;;21.30;96.40;;;;;;5093858;28;20153;-74
2021/08/27 01:20:46;;;;;;;3.72;3.40;;;21.30;96.30;;;;;;5075456;28;20153;-74
2021/08/27 01:23:20;;;;;;;4.18;2.92;;;21.30;96.30;;;;;;5054872;28;20036;-74
2021/08/27 01:25:52;;;;;;;4.40;3.08;;;21.30;96.40;;;;;;5093630;28;20024;-74
2021/08/27 01:28:21;;;;;;;5.80;3.25;;;21.40;96.40;;;;;;5075800;28;20019;-74
2021/08/27 01:31:22;;;;;;;4.25;3.17;;;21.30;96.40;;;;;;5075344;28;20364;-74
2021/08/27 01:34:01;;;;;;;3.45;2.75;;;21.40;96.50;;;;;;4991368;28;20650;-74
2021/08/27 01:36:31;;;;;;;4.40;2.83;;;21.50;96.40;;;;;;5081727;28;20077;-74
2021/08/27 01:38:59;;;;;;;4.75;2.83;;;21.40;96.30;;;;;;5091952;28;20028;-74
2021/08/27 01:41:27;;;;;;;3.83;3.50;;;21.50;96.40;;;;;;5073844;28;20020;-74
2021/08/27 01:43:54;;;;;;;4.80;3.38;;;21.50;96.40;;;;;;5092046;28;20027;-74
2021/08/27 01:46:20;;;;;;;4.35;3.22;;;21.50;96.40;;;;;;5091962;28;20020;-74
2021/08/27 01:48:47;;;;;;;3.17;2.88;;;21.50;96.30;;;;;;5091914;28;20035;-74
2021/08/27 01:51:14;;;;;;;3.80;2.88;;;21.50;96.40;;;;;;5073598;28;20378;-74
2021/08/27 01:53:41;;;;;;;8.32;3.28;;;21.50;96.50;;;;;;5091660;28;20095;-74
2021/08/27 01:56:08;;;;;;;3.50;2.95;;;21.50;96.60;;;;;;5073782;28;20074;-74
2021/08/27 01:58:35;;;;;;;5.63;2.72;;;21.50;96.60;;;;;;5093100;28;20016;-74
2021/08/27 02:01:02;;;;;;;4.35;3.15;;;21.50;96.90;;;;;;5093116;28;20734;-74
2021/08/27 02:03:30;;;;;;;6.22;2.47;;;21.50;96.90;;;;;;5092950;28;20099;-74
2021/08/27 02:05:58;;;;;;;6.63;2.97;;;21.50;97.10;;;;;;5093032;28;20062;-74
2021/08/27 02:08:24;;;;;;;2.80;2.60;;;21.60;97.00;;;;;;5092837;28;20052;-74
2021/08/27 02:10:51;;;;;;;3.22;2.92;;;21.50;97.10;;;;;;5092376;28;20449;-74
2021/08/27 02:13:20;;;;;;;2.85;2.65;;;21.60;97.20;;;;;;5092781;28;20511;-74
2021/08/27 02:15:48;;;;;;;3.17;2.55;;;21.50;97.30;;;;;;5092922;28;20103;-74
2021/08/27 02:18:14;;;;;;;3.33;2.80;;;21.60;97.40;;;;;;5092848;28;20436;-74
2021/08/27 02:20:39;;;;;;;4.93;2.53;;;21.50;97.60;;;;;;5092948;28;20051;-74
2021/08/27 02:23:07;;;;;;;3.30;2.85;;;21.50;97.70;;;;;;5092836;28;20353;-74
2021/08/27 02:25:35;;;;;;;3.35;2.67;;;21.50;97.80;;;;;;5092875;28;20448;-74
2021/08/27 02:28:05;;;;;;;3.65;2.60;;;21.50;98.00;;;;;;5092799;28;20038;-75
2021/08/27 02:30:32;;;;;;;2.78;2.58;;;21.40;97.90;;;;;;5074644;28;20020;-74
2021/08/27 02:33:07;;;;;;;4.43;2.53;;;21.40;97.90;;;;;;5074439;28;20020;-74
2021/08/27 02:35:34;;;;;;;3.17;2.85;;;21.50;97.90;;;;;;5092678;28;20019;-74
2021/08/27 02:38:01;;;;;;;2.63;2.42;;;21.40;98.00;;;;;;5092546;28;20460;-74
2021/08/27 02:40:27;;;;;;;8.30;3.17;;;21.40;98.00;;;;;;5092565;28;20054;-74
2021/08/27 02:42:53;;;;;;;2.40;2.30;;;21.40;98.20;;;;;;5092753;28;20413;-74
2021/08/27 02:45:18;;;;;;;3.85;2.83;;;21.50;98.20;;;;;;5092521;28;20110;-74
2021/08/27 02:47:44;;;;;;;2.53;2.33;;;21.40;98.30;;;;;;5092516;28;20028;-74
2021/08/27 02:50:12;;;;;;;7.15;2.30;;;21.40;98.10;;;;;;5092566;28;20028;-74
2021/08/27 02:53:08;;;;;;;3.20;2.92;;;21.50;98.50;;;;;;5092266;28;20380;-74
2021/08/27 02:55:39;;;;;;;5.20;2.95;;;21.50;98.60;;;;;;5091570;28;20032;-74
2021/08/27 02:58:09;;;;;;;2.65;2.45;;;21.50;98.70;;;;;;5092457;28;20024;-74
2021/08/27 03:00:50;;;;;;;2.75;2.55;;;21.50;98.70;;;;;;5092403;28;20047;-75
2021/08/27 03:03:17;;;;;;;3.47;2.53;;;21.50;99.00;;;;;;5089308;28;20016;-74
2021/08/27 03:05:44;;;;;;;5.53;2.92;;;21.50;99.20;;;;;;5092367;28;20391;-74
2021/08/27 03:08:19;;;;;;;2.65;2.45;;;21.50;99.40;;;;;;5092244;28;20040;-74
2021/08/27 03:10:55;;;;;;;3.03;2.83;;;21.50;99.60;;;;;;5074087;28;20028;-74
2021/08/27 03:13:42;;;;;;;3.58;2.72;;;21.50;99.90;;;;;;5092284;28;20128;-74
2021/08/27 03:16:11;;;;;;;3.15;2.95;;;21.50;99.90;;;;;;5074178;28;20452;-74
2021/08/27 03:19:05;;;;;;;2.63;2.42;;;21.50;99.90;;;;;;5073987;28;20021;-74
2021/08/27 03:21:35;;;;;;;2.45;2.35;;;21.50;99.90;;;;;;5092449;28;20028;-74
2021/08/27 03:24:14;;;;;;;4.13;2.78;;;21.40;99.90;;;;;;5095985;28;20453;-74
2021/08/27 03:26:42;;;;;;;3.20;3.00;;;21.40;99.90;;;;;;5096106;28;20024;-74
2021/08/27 03:29:11;;;;;;;4.10;2.83;;;21.50;99.90;;;;;;5096295;28;20028;-74
2021/08/27 03:31:38;;;;;;;2.35;2.15;;;21.40;99.90;;;;;;5095834;28;20016;-74
2021/08/27 03:34:04;;;;;;;2.70;2.50;;;21.50;99.90;;;;;;5095859;28;20395;-74
2021/08/27 03:36:31;;;;;;;3.95;2.78;;;21.40;99.90;;;;;;5096011;28;20017;-74
2021/08/27 03:39:01;;;;;;;3.05;2.75;;;21.40;99.90;;;;;;5095808;28;20020;-74
2021/08/27 03:41:31;;;;;;;4.38;2.90;;;21.40;99.90;;;;;;5095706;28;20027;-74
2021/08/27 03:43:59;;;;;;;2.72;2.53;;;21.30;99.90;;;;;;5095697;28;20149;-74
2021/08/27 03:46:25;;;;;;;2.33;2.10;;;21.40;99.90;;;;;;5095802;28;20024;-74
2021/08/27 03:48:52;;;;;;;2.05;1.92;;;21.30;99.70;;;;;;5095717;28;20107;-74
2021/08/27 03:51:19;;;;;;;2.20;2.00;;;21.30;99.70;;;;;;5095320;28;20028;-74
2021/08/27 03:53:46;;;;;;;2.40;2.20;;;21.30;99.10;;;;;;5095546;28;20028;-74
2021/08/27 03:56:14;;;;;;;2.05;1.85;;;21.30;99.40;;;;;;5095646;28;20069;-74
2021/08/27 03:58:41;;;;;;;3.40;2.25;;;21.40;99.50;;;;;;5095394;28;20024;-75
2021/08/27 04:01:07;;;;;;;2.10;2.00;;;21.30;99.70;;;;;;5095514;28;20027;-74
2021/08/27 04:03:35;;;;;;;6.18;1.95;;;21.40;99.70;;;;;;5095153;28;20036;-74
2021/08/27 04:06:09;;;;;;;2.65;1.90;;;21.30;99.90;;;;;;5095020;28;20081;-74
2021/08/27 04:08:37;;;;;;;4.93;1.98;;;21.30;99.90;;;;;;5093522;28;20044;-74
2021/08/27 04:11:05;;;;;;;1.63;1.52;;;21.30;99.90;;;;;;5094679;28;20028;-74
2021/08/27 04:13:31;;;;;;;1.52;1.40;;;21.20;99.70;;;;;;5076559;28;20414;-74
2021/08/27 04:15:57;;;;;;;1.77;1.67;;;21.20;99.10;;;;;;5094515;28;20024;-74
2021/08/27 04:18:22;;;;;;;1.77;1.67;;;21.10;99.40;;;;;;5094535;28;20423;-74
2021/08/27 04:20:48;;;;;;;1.83;1.67;;;21.00;99.10;;;;;;5094602;28;20089;-74
2021/08/27 04:23:14;;;;;;;1.70;1.60;;;21.00;99.60;;;;;;5094825;28;20021;-74
2021/08/27 04:25:40;;;;;;;1.67;1.58;;;21.00;99.40;;;;;;5095071;28;20013;-75
2021/08/27 04:28:07;;;;;;;2.50;1.48;;;20.80;99.60;;;;;;5094700;28;20158;-74
2021/08/27 04:30:33;;;;;;;1.52;1.25;;;20.80;99.90;;;;;;5094582;28;20165;-75
2021/08/27 04:33:00;;;;;;;1.63;1.52;;;20.80;99.90;;;;;;5094512;28;20050;-74
2021/08/27 04:35:26;;;;;;;1.75;1.65;;;20.70;99.90;;;;;;5074906;28;20020;-75
2021/08/27 04:37:53;;;;;;;3.53;1.92;;;20.70;99.90;;;;;;5073982;28;20020;-74
2021/08/27 04:40:20;;;;;;;1.63;1.52;;;20.70;99.90;;;;;;5088199;28;20024;-74
2021/08/27 04:42:45;;;;;;;3.00;1.85;;;20.70;99.90;;;;;;5094431;28;20046;-74
2021/08/27 04:45:12;;;;;;;1.98;1.75;;;20.70;99.90;;;;;;5094716;28;20024;-74
2021/08/27 04:47:38;;;;;;;1.67;1.58;;;20.70;99.90;;;;;;5094498;28;20480;-74
2021/08/27 04:50:05;;;;;;;1.92;1.83;;;20.60;99.90;;;;;;5075878;28;20475;-74
2021/08/27 04:52:31;;;;;;;1.48;1.38;;;20.60;99.90;;;;;;5076100;28;20471;-74
2021/08/27 04:54:57;;;;;;;1.90;1.70;;;20.50;99.90;;;;;;5094283;28;20031;-74
2021/08/27 04:57:23;;;;;;;1.48;1.40;;;20.40;99.90;;;;;;5094388;28;20476;-74
2021/08/27 04:59:50;;;;;;;1.85;1.55;;;20.40;99.90;;;;;;5094215;28;20004;-74
2021/08/27 05:02:16;;;;;;;1.40;1.30;;;20.30;99.90;;;;;;5066744;28;20365;-74
2021/08/27 05:04:41;;;;;;;1.20;1.20;;;20.00;99.90;;;;;;5087712;28;20035;-74
2021/08/27 05:07:07;;;;;;;1.27;1.20;;;19.90;99.90;;;;;;5094196;28;20028;-74
2021/08/27 05:09:33;;;;;;;1.63;1.42;;;19.90;99.90;;;;;;5094037;28;20052;-74
2021/08/27 05:11:59;;;;;;;1.42;1.33;;;19.80;99.90;;;;;;5093863;28;20384;-74
2021/08/27 05:14:25;;;;;;;1.85;1.13;;;19.80;99.90;;;;;;5094023;28;20031;-74
2021/08/27 05:16:51;;;;;;;1.38;1.27;;;19.80;99.90;;;;;;5093889;28;20024;-74
2021/08/27 05:19:16;;;;;;;1.23;1.13;;;19.80;99.90;;;;;;5093986;28;20020;-74
2021/08/27 05:21:42;;;;;;;2.15;0.95;;;19.70;99.90;;;;;;5093555;28;20099;-74
2021/08/27 05:24:08;;;;;;;1.33;1.23;;;19.70;99.90;;;;;;5093765;28;20110;-74
2021/08/27 05:26:34;;;;;;;1.33;1.20;;;19.70;99.90;;;;;;5093670;28;20034;-74
2021/08/27 05:29:00;;;;;;;1.15;1.05;;;19.60;99.90;;;;;;5093550;28;20024;-74
2021/08/27 05:31:26;;;;;;;1.40;1.30;;;19.60;99.90;;;;;;5093594;28;20032;-74
2021/08/27 05:33:52;;;;;;;0.98;0.98;;;19.60;99.90;;;;;;5093546;28;20028;-74
2021/08/27 05:36:18;;;;;;;1.30;1.20;;;19.60;99.90;;;;;;5093529;28;20016;-73
2021/08/27 05:38:44;;;;;;;1.15;1.05;;;19.70;99.90;;;;;;5075149;28;20456;-74
2021/08/27 05:41:10;;;;;;;0.80;0.80;;;19.70;99.90;;;;;;5093272;28;20114;-74
2021/08/27 05:43:35;;;;;;;1.55;1.00;;;19.60;99.90;;;;;;5093402;28;20032;-74
2021/08/27 05:46:01;;;;;;;1.10;1.10;;;19.70;99.90;;;;;;5092307;28;20031;-74
2021/08/27 05:48:27;;;;;;;1.10;1.00;;;19.60;99.90;;;;;;5093154;28;20476;-74
2021/08/27 05:50:53;;;;;;;1.00;1.00;;;19.50;99.90;;;;;;5093085;28;20472;-74
2021/08/27 05:53:19;;;;;;;1.10;1.10;;;19.60;99.90;;;;;;5093097;28;20028;-74
2021/08/27 05:55:45;;;;;;;0.90;0.90;;;19.60;99.90;;;;;;5093286;28;20028;-74
2021/08/27 05:58:11;;;;;;;0.82;0.82;;;19.60;99.90;;;;;;5074833;28;20396;-74
2021/08/27 06:00:36;;;;;;;1.05;1.05;;;19.60;99.90;;;;;;5093251;28;20020;-74
2021/08/27 06:03:02;;;;;;;0.80;0.80;;;19.60;99.90;;;;;;5092496;28;20375;-74
2021/08/27 06:05:28;;;;;;;2.55;1.00;;;19.70;99.90;;;;;;5093222;28;20024;-74
2021/08/27 06:07:53;;;;;;;1.00;0.88;;;19.80;99.90;;;;;;5092974;28;20017;-74
2021/08/27 06:10:19;;;;;;;0.90;0.90;;;19.70;99.90;;;;;;5093027;28;20451;-74
2021/08/27 06:12:45;;;;;;;3.50;1.25;;;19.70;99.90;;;;;;5092833;28;20020;-74
2021/08/27 06:15:14;;;;;;;2.50;1.10;;;19.70;99.90;;;;;;5092956;28;20051;-74
2021/08/27 06:17:39;;;;;;;1.30;1.20;;;19.80;99.90;;;;;;5093095;28;20376;-74
2021/08/27 06:20:06;;;;;;;2.63;1.30;;;19.70;99.90;;;;;;5092652;28;20012;-74
2021/08/27 06:22:32;;;;;;;2.72;1.08;;;19.70;99.90;;;;;;5074369;28;20028;-74
2021/08/27 06:24:59;;;;;;;2.00;1.00;;;19.70;99.90;;;;;;5092916;28;20054;-74
2021/08/27 06:27:25;;;;;;;1.40;1.30;;;19.70;99.90;;;;;;5092742;28;20028;-74
2021/08/27 06:29:51;;;;;;;1.60;1.00;;;19.70;99.90;;;;;;5074785;28;20028;-74
2021/08/27 06:32:17;;;;;;;0.60;0.60;;;19.70;99.90;;;;;;5092459;28;20027;-74
2021/08/27 06:34:43;;;;;;;2.70;0.93;;;19.70;99.90;;;;;;5092725;28;20077;-74
2021/08/27 06:37:09;;;;;;;0.98;0.90;;;19.70;99.90;;;;;;5092506;28;20028;-74
2021/08/27 06:39:35;;;;;;;1.63;0.98;;;19.80;99.90;;;;;;5092661;28;20008;-74
2021/08/27 06:42:01;;;;;;;2.88;1.05;;;19.80;99.90;;;;;;5092594;28;20020;-74
2021/08/27 06:44:26;;;;;;;1.42;1.20;;;19.80;99.90;;;;;;5092581;28;20048;-74
2021/08/27 06:46:52;;;;;;;1.35;0.88;;;19.70;99.90;;;;;;5092419;28;20020;-75
2021/08/27 06:49:18;;;;;;;1.63;1.02;;;19.80;99.90;;;;;;5092627;28;20051;-75
2021/08/27 06:51:44;;;;;;;1.00;1.00;;;19.90;99.90;;;;;;5092420;28;20024;-75
2021/08/27 06:54:10;;;;;;;3.40;0.82;;;19.90;99.90;;;;;;5092449;28;20038;-75
2021/08/27 06:56:36;;;;;;;0.70;0.70;;;19.90;99.90;;;;;;5094522;28;20467;-74
2021/08/27 06:59:02;;;;;;;1.02;1.02;;;20.00;99.90;;;;;;5095125;28;20082;-74
2021/08/27 07:01:28;;;;;;;1.83;0.95;;;20.00;99.90;;;;;;5096415;28;20052;-75
2021/08/27 07:03:54;;;;;;;0.65;0.65;;;20.00;99.90;;;;;;5096598;28;20484;-75
2021/08/27 07:06:20;;;;;;;2.88;0.90;;;20.00;99.90;;;;;;5096615;28;20026;-75
2021/08/27 07:08:46;;;;;;;1.20;0.82;;;20.00;99.90;;;;;;5078020;28;20060;-75
2021/08/27 07:11:15;;;;;;;2.05;0.73;;;20.00;99.90;;;;;;5096139;28;20058;-75
2021/08/27 07:13:41;;;;;;;1.00;0.95;;;20.00;99.90;;;;;;5096159;28;20028;-75
2021/08/27 07:16:07;;;;;;;2.65;0.98;;;20.00;99.90;;;;;;5096429;28;20024;-75
2021/08/27 07:18:33;;;;;;;1.85;1.10;;;20.00;99.90;;;;;;5096495;28;20118;-75
2021/08/27 07:20:58;;;;;;;1.08;1.05;;;20.10;99.90;;;;;;5096060;28;20403;-76
2021/08/27 07:23:24;;;;;;;1.05;0.95;;;20.00;99.90;;;;;;5096376;28;20394;-75
2021/08/27 07:25:50;;;;;;;1.08;0.90;;;20.00;99.90;;;;;;5096183;28;20043;-75
2021/08/27 07:28:16;;;;;;;1.05;0.95;;;20.00;99.90;;;;;;5096214;28;20020;-75
2021/08/27 07:30:44;;;;;;;0.95;0.80;;;20.10;99.90;;;;;;5096134;28;20107;-75
2021/08/27 07:33:09;;;;;;;1.02;0.90;;;20.00;99.90;;;;;;5095688;28;20016;-75
2021/08/27 07:35:35;;;;;;;2.55;1.33;;;20.10;99.90;;;;;;5095807;28;20024;-75
2021/08/27 07:38:01;;;;;;;2.00;1.77;;;20.10;99.90;;;;;;5096023;28;20020;-75
2021/08/27 07:40:27;;;;;;;1.20;1.10;;;20.10;99.90;;;;;;5077752;28;20359;-75
2021/08/27 07:42:53;;;;;;;0.90;0.90;;;20.20;99.90;;;;;;5095913;28;20028;-75
2021/08/27 07:45:19;;;;;;;0.82;0.82;;;20.20;99.90;;;;;;5096028;28;20027;-75
2021/08/27 07:47:45;;;;;;;1.67;1.20;;;20.20;99.90;;;;;;5095782;28;20024;-75
2021/08/27 07:50:12;;;;;;;1.13;1.02;;;20.20;99.90;;;;;;5095818;28;20095;-75
2021/08/27 07:52:38;;;;;;;0.80;0.80;;;20.20;99.90;;;;;;5095615;28;20020;-75
2021/08/27 07:55:06;;;;;;;1.23;0.88;;;20.20;99.90;;;;;;5077288;28;20050;-75
2021/08/27 07:57:32;;;;;;;1.15;0.90;;;20.20;99.90;;;;;;5095317;28;20024;-75
2021/08/27 07:59:58;;;;;;;0.90;0.90;;;20.20;99.90;;;;;;5095605;28;20020;-75
2021/08/27 08:02:24;;;;;;;4.63;1.10;;;20.30;99.90;;;;;;5095505;28;20012;-75
2021/08/27 08:04:49;;;;;;;1.48;1.00;;;20.30;99.90;;;;;;5095558;28;20035;-75
2021/08/27 08:07:15;;;;;;;1.52;1.00;;;20.30;99.90;;;;;;5094891;28;20103;-75
2021/08/27 08:09:41;;;;;;;0.63;0.63;;;20.30;99.90;;;;;;5095128;28;20462;-75
2021/08/27 08:12:07;;;;;;;1.30;1.20;;;20.40;99.90;;;;;;5095108;28;20020;-76
2021/08/27 08:14:33;;;;;;;0.90;0.90;;;20.40;99.90;;;;;;5095257;28;20040;-75
2021/08/27 08:16:59;;;;;;;0.80;0.80;;;20.40;99.90;;;;;;5095296;28;20016;-75
2021/08/27 08:19:25;;;;;;;1.10;1.00;;;20.40;99.90;;;;;;5095315;28;20020;-75
2021/08/27 08:21:51;;;;;;;0.73;0.73;;;20.40;99.90;;;;;;5095027;28;20475;-75
2021/08/27 08:24:16;;;;;;;1.50;0.68;;;20.40;99.90;;;;;;5095020;28;20483;-75
2021/08/27 08:26:42;;;;;;;1.00;1.00;;;20.30;99.90;;;;;;5094948;28;20149;-75
2021/08/27 08:29:08;;;;;;;0.90;0.90;;;20.40;99.90;;;;;;5076576;28;20031;-75
2021/08/27 08:31:34;;;;;;;0.90;0.90;;;20.40;99.90;;;;;;5076463;28;20071;-75
2021/08/27 08:34:00;;;;;;;0.70;0.70;;;20.50;99.90;;;;;;5094839;28;20484;-75
2021/08/27 08:36:26;;;;;;;1.20;0.80;;;20.50;99.90;;;;;;5076443;28;20028;-76
2021/08/27 08:38:52;;;;;;;3.47;0.85;;;20.50;99.90;;;;;;5094750;28;20069;-75
2021/08/27 08:41:19;;;;;;;2.67;0.90;;;20.50;99.90;;;;;;5094639;28;20028;-75
2021/08/27 08:43:46;;;;;;;0.75;0.70;;;20.40;99.90;;;;;;5094729;28;20061;-75
2021/08/27 08:46:14;;;;;;;0.90;0.90;;;20.40;99.90;;;;;;5094665;28;20111;-75
2021/08/27 08:48:44;;;;;;;0.80;0.80;;;20.30;99.90;;;;;;5094647;28;20020;-75
2021/08/27 08:51:10;;;;;;;0.88;0.88;;;20.30;99.90;;;;;;5091245;28;20035;-75
2021/08/27 08:53:40;;;;;;;0.90;0.90;;;20.30;99.90;;;;;;5094502;28;20016;-75
2021/08/27 08:56:09;;;;;;;0.90;0.90;;;20.30;99.90;;;;;;5094917;28;20029;-75
2021/08/27 08:58:34;;;;;;;1.92;1.63;;;20.10;99.90;;;;;;5094839;28;20055;-75
2021/08/27 09:01:00;;;;;;;1.77;0.88;;;20.00;99.90;;;;;;5094844;28;20055;-75
2021/08/27 09:03:26;;;;;;;1.70;1.25;;;20.10;99.90;;;;;;5090925;28;20024;-75
2021/08/27 09:05:52;;;;;;;1.98;0.95;;;20.20;99.90;;;;;;5074057;28;20047;-75
2021/08/27 09:08:32;;;;;;;5.95;1.00;;;20.20;99.90;;;;;;5073887;28;20118;-75
2021/08/27 09:10:59;;;;;;;1.42;0.73;;;20.30;99.90;;;;;;5074109;28;20032;-75
2021/08/27 09:13:32;;;;;;;1.30;1.05;;;20.30;99.90;;;;;;5073797;28;20027;-75
2021/08/27 09:16:08;;;;;;;0.95;0.90;;;20.30;99.90;;;;;;5055933;28;20024;-75
2021/08/27 09:18:42;;;;;;;1.38;1.10;;;20.30;99.90;;;;;;5073799;28;20021;-75
2021/08/27 09:21:50;;;;;;;3.30;0.98;;;20.20;99.90;;;;;;5073530;28;20097;-75
2021/08/27 09:24:18;;;;;;;0.88;0.88;;;20.30;99.90;;;;;;5073485;28;20030;-75
2021/08/27 09:26:51;;;;;;;0.98;0.98;;;20.30;99.90;;;;;;5055380;28;20032;-75
2021/08/27 09:29:44;;;;;;;1.10;0.77;;;20.30;99.90;;;;;;5073571;28;20031;-75
2021/08/27 09:32:24;;;;;;;0.80;0.80;;;20.40;99.90;;;;;;5068833;28;20040;-75
2021/08/27 09:35:10;;;;;;;1.05;0.82;;;20.40;99.90;;;;;;5086768;28;20024;-76
2021/08/27 09:37:36;;;;;;;1.45;1.35;;;20.40;99.90;;;;;;5091783;28;20460;-75
2021/08/27 09:40:05;;;;;;;2.40;0.98;;;20.40;99.90;;;;;;5092826;28;20047;-75
2021/08/27 09:42:38;;;;;;;3.35;1.17;;;20.50;99.90;;;;;;5093443;28;20039;-75
2021/08/27 09:45:04;;;;;;;1.20;1.10;;;20.70;99.90;;;;;;5093364;28;20020;-75
2021/08/27 09:47:30;;;;;;;0.98;0.98;;;20.70;99.90;;;;;;5092650;28;20039;-75
2021/08/27 09:49:56;;;;;;;0.88;0.88;;;20.70;99.90;;;;;;5078496;28;20022;-75
2021/08/27 09:52:22;;;;;;;1.27;1.05;;;20.60;99.90;;;;;;5077504;28;20068;-75
2021/08/27 09:54:48;;;;;;;1.20;1.10;;;20.80;99.90;;;;;;5069123;28;20023;-75
2021/08/27 09:57:14;;;;;;;1.17;1.08;;;21.00;99.90;;;;;;5068782;28;20487;-76
2021/08/27 09:59:50;;;;;;;1.02;1.02;;;21.20;99.90;;;;;;5072218;28;20013;-76
2021/08/27 10:02:25;;;;;;;1.13;1.02;;;21.30;99.90;;;;;;5090285;28;20096;-75
2021/08/27 10:04:59;;;;;;;1.70;1.10;;;21.40;99.90;;;;;;5072672;28;20073;-75
2021/08/27 10:07:31;;;;;;;1.13;1.10;;;21.50;99.90;;;;;;5071836;28;20124;-75
2021/08/27 10:10:00;;;;;;;1.17;1.08;;;21.40;98.30;;;;;;5086779;28;20048;-75
2021/08/27 10:12:27;;;;;;;1.50;1.20;;;21.50;99.90;;;;;;5080242;28;20114;-75
2021/08/27 10:14:54;;;;;;;1.30;1.20;;;21.60;99.90;;;;;;5079653;28;20032;-75
2021/08/27 10:17:20;;;;;;;1.17;1.08;;;21.60;99.90;;;;;;5071561;28;20020;-75
2021/08/27 10:19:46;;;;;;;1.30;0.98;;;21.80;99.90;;;;;;5080197;28;20024;-75
2021/08/27 10:22:12;;;;;;;1.42;1.33;;;21.80;99.90;;;;;;5082171;28;20054;-75
2021/08/27 10:24:39;;;;;;;1.40;1.13;;;21.90;99.70;;;;;;5073032;28;20031;-75
2021/08/27 10:27:09;;;;;;;1.33;0.95;;;22.00;99.70;;;;;;5067920;28;20611;-75
2021/08/27 10:29:55;;;;;;;1.60;1.05;;;22.10;99.90;;;;;;5060424;28;20487;-75
2021/08/27 10:32:39;;;;;;;1.20;1.10;;;22.10;98.10;;;;;;5079817;28;20024;-75
2021/08/27 10:35:06;;;;;;;0.90;0.90;;;22.10;98.40;;;;;;5076773;28;20024;-75
2021/08/27 10:37:45;;;;;;;1.30;1.20;;;22.10;98.20;;;;;;5075369;28;20021;-75
2021/08/27 10:40:23;;;;;;;2.63;1.10;;;22.10;98.40;;;;;;5087570;28;20077;-75
2021/08/27 10:43:03;;;;;;;1.20;1.10;;;22.20;97.10;;;;;;5086500;28;20020;-75
2021/08/27 10:45:45;;;;;;;0.90;0.90;;;22.20;96.80;;;;;;5082922;28;20055;-75
2021/08/27 10:48:24;;;;;;;0.70;0.70;;;22.30;96.20;;;;;;5085705;28;20023;-75
2021/08/27 10:50:51;;;;;;;0.85;0.85;;;22.30;96.10;;;;;;5083616;28;20016;-75
2021/08/27 10:53:35;;;;;;;1.02;0.93;;;22.40;94.30;;;;;;5071502;28;20124;-75
2021/08/27 10:56:45;;;;;;;0.88;0.88;;;22.40;95.50;;;;;;5055282;28;20103;-75
2021/08/27 10:59:17;;;;;;;0.85;0.85;;;22.30;94.30;;;;;;5070453;28;20024;-75
2021/08/27 11:01:45;;;;;;;1.85;0.70;;;22.30;95.80;;;;;;5071601;28;20070;-75
2021/08/27 11:04:20;;;;;;;0.82;0.82;;;22.30;95.60;;;;;;5088555;28;20036;-75
2021/08/27 11:06:53;;;;;;;1.23;0.82;;;22.30;94.80;;;;;;5067460;28;20036;-75
2021/08/27 11:09:20;;;;;;;2.38;0.80;;;22.40;94.90;;;;;;5064698;28;20654;-75
2021/08/27 11:11:46;;;;;;;2.20;0.85;;;22.50;94.50;;;;;;5068610;28;20579;-76
2021/08/27 11:14:21;;;;;;;0.90;0.85;;;22.50;92.80;;;;;;5061812;28;20029;-75
2021/08/27 11:17:02;;;;;;;1.27;1.20;;;22.70;93.60;;;;;;5060707;28;20017;-75
2021/08/27 11:19:28;;;;;;;0.93;0.90;;;23.00;93.80;;;;;;5050396;28;20025;-76
2021/08/27 11:22:15;;;;;;;1.65;1.00;;;23.30;94.60;;;;;;5064689;28;20014;-75
2021/08/27 11:25:02;;;;;;;1.05;0.93;;;23.30;92.50;;;;;;5052241;28;20435;-76
2021/08/27 11:27:29;;;;;;;1.00;0.90;;;23.20;92.30;;;;;;5050327;28;20029;-75
2021/08/27 11:29:59;;;;;;;1.02;0.90;;;23.20;91.90;;;;;;5064375;28;20051;-75
2021/08/27 11:32:27;;;;;;;0.90;0.90;;;23.30;91.50;;;;;;5067477;28;20063;-75
2021/08/27 11:34:55;;;;;;;1.13;1.02;;;23.10;90.40;;;;;;5066903;28;20039;-75
2021/08/27 11:37:23;;;;;;;1.13;1.00;;;23.10;90.60;;;;;;5068697;28;20092;-75
2021/08/27 11:39:50;;;;;;;2.22;0.93;;;23.10;91.60;;;;;;5065875;28;20637;-75
2021/08/27 11:42:17;;;;;;;1.80;0.82;;;23.20;91.80;;;;;;5067042;28;20017;-75
2021/08/27 11:44:44;;;;;;;1.00;1.00;;;23.20;91.40;;;;;;5065590;28;20031;-75
2021/08/27 11:47:12;;;;;;;1.30;1.10;;;23.20;91.80;;;;;;5061418;28;20024;-76
2021/08/27 11:50:01;;;;;;;1.08;1.02;;;23.30;91.30;;;;;;5068369;28;20020;-75
2021/08/27 11:52:28;;;;;;;1.58;1.08;;;23.20;91.10;;;;;;5070871;28;20097;-75
2021/08/27 11:55:03;;;;;;;1.85;1.40;;;23.30;91.60;;;;;;5066404;28;20056;-75
2021/08/27 11:57:29;;;;;;;0.80;0.80;;;23.50;91.70;;;;;;5069934;28;20364;-75
2021/08/27 12:00:10;;;;;;;1.20;1.00;;;23.60;90.30;;;;;;5068789;28;20628;-75
2021/08/27 12:02:36;;;;;;;2.88;0.90;;;23.70;90.10;;;;;;5050017;28;20598;-75
2021/08/27 12:05:12;;;;;;;2.80;1.00;;;23.60;90.00;;;;;;5065514;28;20422;-75
2021/08/27 12:07:52;;;;;;;0.95;0.88;;;23.70;88.70;;;;;;5070604;28;20028;-75
2021/08/27 12:10:18;;;;;;;1.80;0.80;;;23.60;88.90;;;;;;5089553;28;20140;-75
2021/08/27 12:12:46;;;;;;;2.00;0.90;;;23.60;88.70;;;;;;5092296;28;20422;-75
2021/08/27 12:15:18;;;;;;;0.70;0.70;;;23.50;88.40;;;;;;5092088;28;20020;-75
2021/08/27 12:17:59;;;;;;;1.50;0.93;;;23.50;89.60;;;;;;5091752;28;20492;-75
2021/08/27 12:20:36;;;;;;;0.70;0.70;;;23.70;90.40;;;;;;5073576;28;20032;-76
2021/08/27 12:23:13;;;;;;;1.65;1.30;;;23.60;85.40;;;;;;5091729;28;20054;-75
2021/08/27 12:25:42;;;;;;;1.35;0.98;;;23.70;87.80;;;;;;5073742;28;20030;-76
2021/08/27 12:28:16;;;;;;;1.20;1.20;;;23.80;87.30;;;;;;5091672;28;20107;-76
2021/08/27 12:30:58;;;;;;;1.02;0.93;;;23.80;86.60;;;;;;5084592;28;20021;-75
2021/08/27 12:33:26;;;;;;;1.65;0.90;;;23.80;86.00;;;;;;5071107;28;20025;-76
2021/08/27 12:35:55;;;;;;;1.60;1.00;;;23.70;85.10;;;;;;5053871;28;20029;-75
2021/08/27 12:38:21;;;;;;;2.35;1.20;;;23.70;84.30;;;;;;5070350;28;20024;-75
2021/08/27 12:40:47;;;;;;;1.05;0.98;;;23.70;85.20;;;;;;5071310;28;20016;-75
2021/08/27 12:43:15;;;;;;;1.00;0.90;;;23.80;87.00;;;;;;5076411;28;20052;-76
2021/08/27 12:45:53;;;;;;;2.38;1.02;;;24.00;87.20;;;;;;5094617;28;20541;-77
2021/08/27 12:48:29;;;;;;;0.95;0.70;;;23.80;87.40;;;;;;5075998;28;20024;-76
2021/08/27 12:51:00;;;;;;;0.90;0.90;;;23.80;86.20;;;;;;5092563;28;20484;-76
2021/08/27 12:53:29;;;;;;;1.27;1.10;;;24.00;87.40;;;;;;5092423;28;20024;-77
2021/08/27 12:56:20;;;;;;;2.38;0.98;;;24.00;84.20;;;;;;5091189;28;20035;-76
2021/08/27 12:58:55;;;;;;;1.15;1.08;;;24.10;85.70;;;;;;5074476;28;20035;-76